createdAt,value
2018-12-26T00:00:26.052Z,2.72
2018-12-26T00:01:26.217Z,2.75
2018-12-26T00:02:25.997Z,2.70
2018-12-26T00:03:25.968Z,2.69
2018-12-26T00:04:25.940Z,2.64
2018-12-26T00:05:25.946Z,2.61
2018-12-26T00:06:25.886Z,2.65
2018-12-26T00:07:25.858Z,2.57
2018-12-26T00:08:25.830Z,2.61
2018-12-26T00:09:25.803Z,2.61
2018-12-26T00:10:25.777Z,2.72
2018-12-26T00:11:25.748Z,2.65
2018-12-26T00:12:25.720Z,2.72
2018-12-26T00:13:25.694Z,2.76
2018-12-26T00:14:25.670Z,2.75
2018-12-26T00:15:25.636Z,2.80
2018-12-26T00:16:25.610Z,2.79
2018-12-26T00:17:25.582Z,2.91
2018-12-26T00:18:25.684Z,2.94
2018-12-26T00:19:25.528Z,2.88
2018-12-26T00:20:27.358Z,2.88
2018-12-26T00:21:25.472Z,3.03
2018-12-26T00:22:25.446Z,2.87
2018-12-26T00:23:25.415Z,2.85
2018-12-26T00:24:25.392Z,2.90
2018-12-26T00:25:25.382Z,2.90
2018-12-26T00:26:25.334Z,2.87
2018-12-26T00:27:25.305Z,2.82
2018-12-26T00:28:25.278Z,2.87
2018-12-26T00:29:25.250Z,2.79
2018-12-26T00:30:25.224Z,2.90
2018-12-26T00:31:25.196Z,2.91
2018-12-26T00:32:25.166Z,2.87
2018-12-26T00:33:25.140Z,2.93
2018-12-26T00:34:25.114Z,2.91
2018-12-26T00:35:25.089Z,2.91
2018-12-26T00:36:25.057Z,2.93
2018-12-26T00:37:25.029Z,3.03
2018-12-26T00:38:25.001Z,2.90
2018-12-26T00:39:24.975Z,2.95
2018-12-26T00:40:25.015Z,2.91
2018-12-26T00:41:24.918Z,2.91
2018-12-26T00:42:24.892Z,3.00
2018-12-26T00:43:24.862Z,3.00
2018-12-26T00:44:24.849Z,3.00
2018-12-26T00:45:25.507Z,2.93
2018-12-26T00:46:24.781Z,2.90
2018-12-26T00:47:24.753Z,3.03
2018-12-26T00:48:24.724Z,3.00
2018-12-26T00:49:24.698Z,3.00
2018-12-26T00:50:24.670Z,2.91
2018-12-26T00:51:24.645Z,2.97
2018-12-26T00:52:24.614Z,3.00
2018-12-26T00:53:24.587Z,3.01
2018-12-26T00:54:24.562Z,3.09
2018-12-26T00:55:24.531Z,3.12
2018-12-26T00:56:24.505Z,3.08
2018-12-26T00:57:24.476Z,3.18
2018-12-26T00:58:24.449Z,3.15
2018-12-26T00:59:24.421Z,3.09
2018-12-26T01:00:24.415Z,3.13
2018-12-26T01:01:24.557Z,3.06
2018-12-26T01:02:24.338Z,3.13
2018-12-26T01:03:24.311Z,3.09
2018-12-26T01:04:24.497Z,3.18
2018-12-26T01:05:24.256Z,3.11
2018-12-26T01:06:24.228Z,3.11
2018-12-26T01:07:24.199Z,3.05
2018-12-26T01:08:24.171Z,2.97
2018-12-26T01:09:24.145Z,3.09
2018-12-26T01:10:24.129Z,3.05
2018-12-26T01:11:24.099Z,3.00
2018-12-26T01:12:24.063Z,2.94
2018-12-26T01:13:24.035Z,3.01
2018-12-26T01:14:24.007Z,3.01
2018-12-26T01:15:23.982Z,3.08
2018-12-26T01:16:23.950Z,3.09
2018-12-26T01:17:23.925Z,3.11
2018-12-26T01:18:23.968Z,3.12
2018-12-26T01:19:23.865Z,3.16
2018-12-26T01:20:23.839Z,3.11
2018-12-26T01:21:23.812Z,3.12
2018-12-26T01:22:23.787Z,3.09
2018-12-26T01:23:23.755Z,3.01
2018-12-26T01:24:23.728Z,3.09
2018-12-26T01:25:23.701Z,3.15
2018-12-26T01:26:23.674Z,3.13
2018-12-26T01:27:23.646Z,3.12
2018-12-26T01:28:23.618Z,3.16
2018-12-26T01:29:23.591Z,3.13
2018-12-26T01:30:23.564Z,3.12
2018-12-26T01:31:23.535Z,3.13
2018-12-26T01:32:23.507Z,3.15
2018-12-26T01:33:23.480Z,3.15
2018-12-26T01:34:23.453Z,3.13
2018-12-26T01:35:23.426Z,3.16
2018-12-26T01:36:23.398Z,3.11
2018-12-26T01:37:23.370Z,3.16
2018-12-26T01:38:23.343Z,3.13
2018-12-26T01:39:23.316Z,3.12
2018-12-26T01:40:23.287Z,3.09
2018-12-26T01:41:23.258Z,3.12
2018-12-26T01:42:23.238Z,3.15
2018-12-26T01:43:23.202Z,3.12
2018-12-26T01:44:23.177Z,3.09
2018-12-26T01:45:23.185Z,3.12
2018-12-26T01:46:23.122Z,3.12
2018-12-26T01:47:23.093Z,3.09
2018-12-26T01:48:23.071Z,3.13
2018-12-26T01:49:23.039Z,3.12
2018-12-26T01:50:23.010Z,3.26
2018-12-26T01:51:22.986Z,3.24
2018-12-26T01:52:22.956Z,3.19
2018-12-26T01:53:22.928Z,3.18
2018-12-26T01:54:22.902Z,3.12
2018-12-26T01:55:22.873Z,3.21
2018-12-26T01:56:27.955Z,3.21
2018-12-26T01:57:22.818Z,3.24
2018-12-26T01:58:22.794Z,3.08
2018-12-26T01:59:22.767Z,3.09
2018-12-26T02:00:22.736Z,3.12
2018-12-26T02:01:22.707Z,3.13
2018-12-26T02:02:22.680Z,3.11
2018-12-26T02:03:22.653Z,3.12
2018-12-26T02:04:22.626Z,3.13
2018-12-26T02:05:22.597Z,3.11
2018-12-26T02:06:22.571Z,3.15
2018-12-26T02:07:22.540Z,2.98
2018-12-26T02:08:22.516Z,3.08
2018-12-26T02:09:22.514Z,3.11
2018-12-26T02:10:22.459Z,3.15
2018-12-26T02:11:22.431Z,3.08
2018-12-26T02:12:22.406Z,3.08
2018-12-26T02:13:22.376Z,3.09
2018-12-26T02:14:22.351Z,3.09
2018-12-26T02:15:22.320Z,3.08
2018-12-26T02:16:22.292Z,2.97
2018-12-26T02:17:22.265Z,2.98
2018-12-26T02:18:22.238Z,3.06
2018-12-26T02:19:22.209Z,2.95
2018-12-26T02:20:22.182Z,2.94
2018-12-26T02:21:22.154Z,2.97
2018-12-26T02:22:22.141Z,3.09
2018-12-26T02:23:22.099Z,3.01
2018-12-26T02:24:22.071Z,3.13
2018-12-26T02:25:22.045Z,3.09
2018-12-26T02:26:22.030Z,3.11
2018-12-26T02:27:21.989Z,3.01
2018-12-26T02:28:21.962Z,2.94
2018-12-26T02:29:21.935Z,2.93
2018-12-26T02:30:21.919Z,2.93
2018-12-26T02:31:21.878Z,2.88
2018-12-26T02:32:21.851Z,2.97
2018-12-26T02:33:21.824Z,2.80
2018-12-26T02:34:21.799Z,2.80
2018-12-26T02:35:21.766Z,2.77
2018-12-26T02:36:21.739Z,2.82
2018-12-26T02:37:21.713Z,2.76
2018-12-26T02:38:21.684Z,2.75
2018-12-26T02:39:21.657Z,2.70
2018-12-26T02:40:21.635Z,2.88
2018-12-26T02:41:21.602Z,2.73
2018-12-26T02:42:21.595Z,2.72
2018-12-26T02:43:21.547Z,2.76
2018-12-26T02:44:21.519Z,2.85
2018-12-26T02:45:21.490Z,2.94
2018-12-26T02:46:21.475Z,2.90
2018-12-26T02:47:21.434Z,2.91
2018-12-26T02:48:21.406Z,2.90
2018-12-26T02:49:21.380Z,2.75
2018-12-26T02:50:21.382Z,2.87
2018-12-26T02:51:21.323Z,2.73
2018-12-26T02:52:21.297Z,2.76
2018-12-26T02:53:21.268Z,2.76
2018-12-26T02:54:21.297Z,2.88
2018-12-26T02:55:21.212Z,2.88
2018-12-26T02:56:21.185Z,2.90
2018-12-26T02:57:21.156Z,2.83
2018-12-26T02:58:21.130Z,2.73
2018-12-26T02:59:21.101Z,2.85
2018-12-26T03:00:21.073Z,2.83
2018-12-26T03:01:21.049Z,2.91
2018-12-26T03:02:21.019Z,2.82
2018-12-26T03:03:20.997Z,2.88
2018-12-26T03:04:20.961Z,2.88
2018-12-26T03:05:20.937Z,2.82
2018-12-26T03:06:20.908Z,2.83
2018-12-26T03:07:20.878Z,2.85
2018-12-26T03:08:20.879Z,2.90
2018-12-26T03:09:20.826Z,2.95
2018-12-26T03:10:20.795Z,2.93
2018-12-26T03:11:20.767Z,2.76
2018-12-26T03:12:20.746Z,2.79
2018-12-26T03:13:20.713Z,2.76
2018-12-26T03:14:20.684Z,2.77
2018-12-26T03:15:20.657Z,2.91
2018-12-26T03:16:20.628Z,2.87
2018-12-26T03:17:20.601Z,2.79
2018-12-26T03:18:20.573Z,2.77
2018-12-26T03:19:20.545Z,2.79
2018-12-26T03:20:20.516Z,2.73
2018-12-26T03:21:20.491Z,2.82
2018-12-26T03:22:20.466Z,2.69
2018-12-26T03:23:20.433Z,2.79
2018-12-26T03:24:20.448Z,2.80
2018-12-26T03:25:20.378Z,2.83
2018-12-26T03:26:20.350Z,2.75
2018-12-26T03:27:20.322Z,2.80
2018-12-26T03:28:20.294Z,2.77
2018-12-26T03:29:20.267Z,2.77
2018-12-26T03:30:20.239Z,2.80
2018-12-26T03:31:20.211Z,2.77
2018-12-26T03:32:20.184Z,2.80
2018-12-26T03:33:20.157Z,2.91
2018-12-26T03:34:20.128Z,2.83
2018-12-26T03:35:20.099Z,2.83
2018-12-26T03:36:20.075Z,2.85
2018-12-26T03:37:20.046Z,2.90
2018-12-26T03:38:20.165Z,2.79
2018-12-26T03:39:19.987Z,2.83
2018-12-26T03:40:19.959Z,2.77
2018-12-26T03:41:19.934Z,2.72
2018-12-26T03:42:19.910Z,2.73
2018-12-26T03:43:19.874Z,2.72
2018-12-26T03:44:19.848Z,2.73
2018-12-26T03:45:19.820Z,2.64
2018-12-26T03:46:19.792Z,2.75
2018-12-26T03:47:19.764Z,2.70
2018-12-26T03:48:19.736Z,2.75
2018-12-26T03:49:19.708Z,2.75
2018-12-26T03:50:19.681Z,2.75
2018-12-26T03:51:19.664Z,2.75
2018-12-26T03:52:19.626Z,2.73
2018-12-26T03:53:19.598Z,2.77
2018-12-26T03:54:19.569Z,2.72
2018-12-26T03:55:19.542Z,2.79
2018-12-26T03:56:19.512Z,2.77
2018-12-26T03:57:19.487Z,2.75
2018-12-26T03:58:19.458Z,2.82
2018-12-26T03:59:19.428Z,2.76
2018-12-26T04:00:19.403Z,2.72
2018-12-26T04:01:19.375Z,2.80
2018-12-26T04:02:19.346Z,2.76
2018-12-26T04:03:19.318Z,2.83
2018-12-26T04:04:19.293Z,2.77
2018-12-26T04:05:19.260Z,2.83
2018-12-26T04:06:19.236Z,2.90
2018-12-26T04:07:19.208Z,2.88
2018-12-26T04:08:19.178Z,2.79
2018-12-26T04:09:19.154Z,2.87
2018-12-26T04:10:19.124Z,2.90
2018-12-26T04:11:19.097Z,2.90
2018-12-26T04:12:19.065Z,2.80
2018-12-26T04:13:19.039Z,2.83
2018-12-26T04:14:19.010Z,2.76
2018-12-26T04:15:18.990Z,2.80
2018-12-26T04:16:18.954Z,2.73
2018-12-26T04:17:18.925Z,2.79
2018-12-26T04:18:18.900Z,2.79
2018-12-26T04:19:18.870Z,2.77
2018-12-26T04:20:18.844Z,2.80
2018-12-26T04:21:18.815Z,2.77
2018-12-26T04:22:18.791Z,2.77
2018-12-26T04:23:18.759Z,2.88
2018-12-26T04:24:18.737Z,2.77
2018-12-26T04:25:18.703Z,2.87
2018-12-26T04:26:18.677Z,2.79
2018-12-26T04:27:18.649Z,2.72
2018-12-26T04:28:18.619Z,2.79
2018-12-26T04:29:18.592Z,2.76
2018-12-26T04:30:18.564Z,2.88
2018-12-26T04:31:18.538Z,2.83
2018-12-26T04:32:18.509Z,2.76
2018-12-26T04:33:18.487Z,2.80
2018-12-26T04:34:18.452Z,2.83
2018-12-26T04:35:18.425Z,2.80
2018-12-26T04:36:18.397Z,2.77
2018-12-26T04:37:18.371Z,2.80
2018-12-26T04:38:18.343Z,2.85
2018-12-26T04:39:18.314Z,2.88
2018-12-26T04:40:18.287Z,2.90
2018-12-26T04:41:18.260Z,2.90
2018-12-26T04:42:18.231Z,2.97
2018-12-26T04:43:18.203Z,2.91
2018-12-26T04:44:18.177Z,2.93
2018-12-26T04:45:18.148Z,2.88
2018-12-26T04:46:18.123Z,2.87
2018-12-26T04:47:18.096Z,2.90
2018-12-26T04:48:18.068Z,2.93
2018-12-26T04:49:18.040Z,2.88
2018-12-26T04:50:18.008Z,2.93
2018-12-26T04:51:17.981Z,2.90
2018-12-26T04:52:17.952Z,2.88
2018-12-26T04:53:17.926Z,2.88
2018-12-26T04:54:17.899Z,2.85
2018-12-26T04:55:17.875Z,2.88
2018-12-26T04:56:17.841Z,2.93
2018-12-26T04:57:24.652Z,2.98
2018-12-26T04:58:17.786Z,2.88
2018-12-26T04:59:17.758Z,2.85
2018-12-26T05:00:17.730Z,2.80
2018-12-26T05:01:17.702Z,2.87
2018-12-26T05:02:17.680Z,2.87
2018-12-26T05:03:17.651Z,2.90
2018-12-26T05:04:17.619Z,2.94
2018-12-26T05:05:17.591Z,2.87
2018-12-26T05:06:17.563Z,2.94
2018-12-26T05:07:17.538Z,2.91
2018-12-26T05:08:17.507Z,2.88
2018-12-26T05:09:17.481Z,2.94
2018-12-26T05:10:17.452Z,3.05
2018-12-26T05:11:17.424Z,2.98
2018-12-26T05:12:17.401Z,2.95
2018-12-26T05:13:17.369Z,2.94
2018-12-26T05:14:17.342Z,3.00
2018-12-26T05:15:17.315Z,3.00
2018-12-26T05:16:17.287Z,2.98
2018-12-26T05:17:17.259Z,2.93
2018-12-26T05:18:17.232Z,3.01
2018-12-26T05:19:17.207Z,3.01
2018-12-26T05:20:17.174Z,2.98
2018-12-26T05:21:17.150Z,2.91
2018-12-26T05:22:17.119Z,3.03
2018-12-26T05:23:17.090Z,3.03
2018-12-26T05:24:17.066Z,2.90
2018-12-26T05:25:17.036Z,2.98
2018-12-26T05:26:17.009Z,2.98
2018-12-26T05:27:16.992Z,3.06
2018-12-26T05:28:16.960Z,3.05
2018-12-26T05:29:17.004Z,2.98
2018-12-26T05:30:16.902Z,2.98
2018-12-26T05:31:16.876Z,2.94
2018-12-26T05:32:16.845Z,2.94
2018-12-26T05:33:16.815Z,2.97
2018-12-26T05:34:16.787Z,3.03
2018-12-26T05:35:16.758Z,3.08
2018-12-26T05:36:16.731Z,3.06
2018-12-26T05:37:16.705Z,3.09
2018-12-26T05:38:16.678Z,3.12
2018-12-26T05:39:16.648Z,3.08
2018-12-26T05:40:16.683Z,3.06
2018-12-26T05:41:16.594Z,3.00
2018-12-26T05:42:16.569Z,3.09
2018-12-26T05:43:16.540Z,3.16
2018-12-26T05:44:16.510Z,3.08
2018-12-26T05:45:16.482Z,3.06
2018-12-26T05:46:16.456Z,3.16
2018-12-26T05:47:16.427Z,3.12
2018-12-26T05:48:16.400Z,3.09
2018-12-26T05:49:16.373Z,3.12
2018-12-26T05:50:16.346Z,3.09
2018-12-26T05:51:16.317Z,3.12
2018-12-26T05:52:16.290Z,3.13
2018-12-26T05:53:16.263Z,3.11
2018-12-26T05:54:16.235Z,3.15
2018-12-26T05:55:16.309Z,3.12
2018-12-26T05:56:16.180Z,3.15
2018-12-26T05:57:16.152Z,3.13
2018-12-26T05:58:16.125Z,3.21
2018-12-26T05:59:16.100Z,3.21
2018-12-26T06:00:16.069Z,3.24
2018-12-26T06:01:16.042Z,3.13
2018-12-26T06:02:16.015Z,3.12
2018-12-26T06:03:15.986Z,3.06
2018-12-26T06:04:15.959Z,3.06
2018-12-26T06:05:15.933Z,3.12
2018-12-26T06:06:15.905Z,3.13
2018-12-26T06:07:15.878Z,3.16
2018-12-26T06:08:15.850Z,3.12
2018-12-26T06:09:15.821Z,3.12
2018-12-26T06:10:15.793Z,3.09
2018-12-26T06:11:15.777Z,2.95
2018-12-26T06:12:15.741Z,2.98
2018-12-26T06:13:15.711Z,3.06
2018-12-26T06:14:15.685Z,2.97
2018-12-26T06:15:15.660Z,2.97
2018-12-26T06:16:15.628Z,3.00
2018-12-26T06:17:15.601Z,2.98
2018-12-26T06:18:15.572Z,2.91
2018-12-26T06:19:15.551Z,2.93
2018-12-26T06:20:15.518Z,2.95
2018-12-26T06:21:15.490Z,2.88
2018-12-26T06:22:15.462Z,2.95
2018-12-26T06:23:15.434Z,2.94
2018-12-26T06:24:15.406Z,2.90
2018-12-26T06:25:15.386Z,2.91
2018-12-26T06:26:15.351Z,3.01
2018-12-26T06:27:15.323Z,3.08
2018-12-26T06:28:15.295Z,2.97
2018-12-26T06:29:15.270Z,2.93
2018-12-26T06:30:15.240Z,2.95
2018-12-26T06:31:15.212Z,2.88
2018-12-26T06:32:15.184Z,2.87
2018-12-26T06:33:15.259Z,2.88
2018-12-26T06:34:15.129Z,2.91
2018-12-26T06:35:15.104Z,2.90
2018-12-26T06:36:15.074Z,2.98
2018-12-26T06:37:15.046Z,2.97
2018-12-26T06:38:15.019Z,3.00
2018-12-26T06:39:14.992Z,2.93
2018-12-26T06:40:14.963Z,2.95
2018-12-26T06:41:14.935Z,2.88
2018-12-26T06:42:14.908Z,2.88
2018-12-26T06:43:14.880Z,2.97
2018-12-26T06:44:14.855Z,2.91
2018-12-26T06:45:14.824Z,2.95
2018-12-26T06:46:14.796Z,2.91
2018-12-26T06:47:14.769Z,2.91
2018-12-26T06:48:14.740Z,2.93
2018-12-26T06:49:14.714Z,2.98
2018-12-26T06:50:14.686Z,3.03
2018-12-26T06:51:14.658Z,3.03
2018-12-26T06:52:14.632Z,2.97
2018-12-26T06:53:14.603Z,2.98
2018-12-26T06:54:14.575Z,3.00
2018-12-26T06:55:14.549Z,3.08
2018-12-26T06:56:14.519Z,2.97
2018-12-26T06:57:14.491Z,3.01
2018-12-26T06:58:14.465Z,3.03
2018-12-26T06:59:14.435Z,2.95
2018-12-26T07:00:14.409Z,2.97
2018-12-26T07:01:14.381Z,2.95
2018-12-26T07:02:14.359Z,2.95
2018-12-26T07:03:14.325Z,3.03
2018-12-26T07:04:14.298Z,2.93
2018-12-26T07:05:14.271Z,2.94
2018-12-26T07:06:14.244Z,3.03
2018-12-26T07:07:14.214Z,2.91
2018-12-26T07:08:14.188Z,2.95
2018-12-26T07:09:14.160Z,2.88
2018-12-26T07:10:15.427Z,2.94
2018-12-26T07:11:14.104Z,2.88
2018-12-26T07:12:14.077Z,2.94
2018-12-26T07:13:14.049Z,3.03
2018-12-26T07:14:14.023Z,2.94
2018-12-26T07:15:13.994Z,3.01
2018-12-26T07:16:14.507Z,2.93
2018-12-26T07:17:13.940Z,2.97
2018-12-26T07:18:13.911Z,2.95
2018-12-26T07:19:13.883Z,2.90
2018-12-26T07:20:13.855Z,2.95
2018-12-26T07:21:13.853Z,2.93
2018-12-26T07:22:13.802Z,2.90
2018-12-26T07:23:13.773Z,2.93
2018-12-26T07:24:13.745Z,2.88
2018-12-26T07:25:13.718Z,2.87
2018-12-26T07:26:13.691Z,2.88
2018-12-26T07:27:13.662Z,2.95
2018-12-26T07:28:13.633Z,2.91
2018-12-26T07:29:13.607Z,2.88
2018-12-26T07:30:13.578Z,2.94
2018-12-26T07:31:13.551Z,2.87
2018-12-26T07:32:13.526Z,2.91
2018-12-26T07:33:13.496Z,2.93
2018-12-26T07:34:13.469Z,2.90
2018-12-26T07:35:13.439Z,2.90
2018-12-26T07:36:13.416Z,2.95
2018-12-26T07:37:13.384Z,2.88
2018-12-26T07:38:13.357Z,2.88
2018-12-26T07:39:13.332Z,2.90
2018-12-26T07:40:13.300Z,2.94
2018-12-26T07:41:13.272Z,2.94
2018-12-26T07:42:13.245Z,2.93
2018-12-26T07:43:13.217Z,2.91
2018-12-26T07:44:13.189Z,2.97
2018-12-26T07:45:13.161Z,2.97
2018-12-26T07:46:13.133Z,2.97
2018-12-26T07:47:13.105Z,2.98
2018-12-26T07:48:13.078Z,2.88
2018-12-26T07:49:13.049Z,2.93
2018-12-26T07:50:13.025Z,2.91
2018-12-26T07:51:12.995Z,2.97
2018-12-26T07:52:12.966Z,2.91
2018-12-26T07:53:12.938Z,2.91
2018-12-26T07:54:12.909Z,2.88
2018-12-26T07:55:12.884Z,2.87
2018-12-26T07:56:12.854Z,2.94
2018-12-26T07:57:12.826Z,2.95
2018-12-26T07:58:17.613Z,2.90
2018-12-26T07:59:12.770Z,2.90
2018-12-26T08:00:12.743Z,2.91
2018-12-26T08:01:12.717Z,2.91
2018-12-26T08:02:12.687Z,2.94
2018-12-26T08:03:12.659Z,2.90
2018-12-26T08:04:12.631Z,2.90
2018-12-26T08:05:12.603Z,2.95
2018-12-26T08:06:12.575Z,2.95
2018-12-26T08:07:12.550Z,2.94
2018-12-26T08:08:12.519Z,3.00
2018-12-26T08:09:12.492Z,2.90
2018-12-26T08:10:12.469Z,2.88
2018-12-26T08:11:12.436Z,2.95
2018-12-26T08:12:12.409Z,3.00
2018-12-26T08:13:12.434Z,2.98
2018-12-26T08:14:12.353Z,2.90
2018-12-26T08:15:12.325Z,3.00
2018-12-26T08:16:12.294Z,2.91
2018-12-26T08:17:12.267Z,2.98
2018-12-26T08:18:12.241Z,2.98
2018-12-26T08:19:12.211Z,2.91
2018-12-26T08:20:12.183Z,3.01
2018-12-26T08:21:12.227Z,2.94
2018-12-26T08:22:12.214Z,2.97
2018-12-26T08:23:12.253Z,3.01
2018-12-26T08:24:12.196Z,2.98
2018-12-26T08:25:12.206Z,2.98
2018-12-26T08:26:12.072Z,3.09
2018-12-26T08:27:12.181Z,3.00
2018-12-26T08:28:12.052Z,3.05
2018-12-26T08:29:11.998Z,2.93
2018-12-26T08:30:12.029Z,3.03
2018-12-26T08:31:11.935Z,2.91
2018-12-26T08:32:11.913Z,2.91
2018-12-26T08:33:11.878Z,3.03
2018-12-26T08:34:11.900Z,2.98
2018-12-26T08:35:11.902Z,3.05
2018-12-26T08:36:11.781Z,3.11
2018-12-26T08:37:11.765Z,3.11
2018-12-26T08:38:11.746Z,3.00
2018-12-26T08:39:11.696Z,2.95
2018-12-26T08:40:11.625Z,3.06
2018-12-26T08:41:11.597Z,3.09
2018-12-26T08:42:11.574Z,3.12
2018-12-26T08:43:11.543Z,3.00
2018-12-26T08:44:11.513Z,3.11
2018-12-26T08:45:11.484Z,3.16
2018-12-26T08:46:11.487Z,3.09
2018-12-26T08:47:11.429Z,3.12
2018-12-26T08:48:11.432Z,3.13
2018-12-26T08:49:11.376Z,3.13
2018-12-26T08:50:11.345Z,3.13
2018-12-26T08:51:11.319Z,3.13
2018-12-26T08:52:11.293Z,3.11
2018-12-26T08:53:11.261Z,3.09
2018-12-26T08:54:11.232Z,3.13
2018-12-26T08:55:11.206Z,3.11
2018-12-26T08:56:11.219Z,3.11
2018-12-26T08:57:11.150Z,3.09
2018-12-26T08:58:11.124Z,3.16
2018-12-26T08:59:11.095Z,3.08
2018-12-26T09:00:11.099Z,3.12
2018-12-26T09:01:11.037Z,3.13
2018-12-26T09:02:11.010Z,3.21
2018-12-26T09:03:10.979Z,3.13
2018-12-26T09:04:11.057Z,3.21
2018-12-26T09:05:10.924Z,3.16
2018-12-26T09:06:10.896Z,3.27
2018-12-26T09:07:10.926Z,3.15
2018-12-26T09:08:10.844Z,3.29
2018-12-26T09:09:10.812Z,3.22
2018-12-26T09:10:10.869Z,3.26
2018-12-26T09:11:10.755Z,3.24
2018-12-26T09:12:10.731Z,3.26
2018-12-26T09:13:10.700Z,3.22
2018-12-26T09:14:10.672Z,3.26
2018-12-26T09:15:10.644Z,3.27
2018-12-26T09:16:10.616Z,3.26
2018-12-26T09:17:10.588Z,3.15
2018-12-26T09:18:10.561Z,3.22
2018-12-26T09:19:10.532Z,3.22
2018-12-26T09:20:10.503Z,3.30
2018-12-26T09:21:10.486Z,3.21
2018-12-26T09:22:10.449Z,3.21
2018-12-26T09:23:10.421Z,3.26
2018-12-26T09:24:10.392Z,3.27
2018-12-26T09:25:10.370Z,3.27
2018-12-26T09:26:10.340Z,3.30
2018-12-26T09:27:10.312Z,3.30
2018-12-26T09:28:10.280Z,3.29
2018-12-26T09:29:10.253Z,3.22
2018-12-26T09:30:10.225Z,3.16
2018-12-26T09:31:10.197Z,3.18
2018-12-26T09:32:10.169Z,3.24
2018-12-26T09:33:10.142Z,3.27
2018-12-26T09:34:10.114Z,3.21
2018-12-26T09:35:10.085Z,3.24
2018-12-26T09:36:10.061Z,3.31
2018-12-26T09:37:10.031Z,3.24
2018-12-26T09:38:10.002Z,3.26
2018-12-26T09:39:09.974Z,3.27
2018-12-26T09:40:09.948Z,3.29
2018-12-26T09:41:09.920Z,3.26
2018-12-26T09:42:09.891Z,3.26
2018-12-26T09:43:09.863Z,3.31
2018-12-26T09:44:09.835Z,3.37
2018-12-26T09:45:09.807Z,3.31
2018-12-26T09:46:09.784Z,3.37
2018-12-26T09:47:09.862Z,3.34
2018-12-26T09:48:09.727Z,3.36
2018-12-26T09:49:09.701Z,3.43
2018-12-26T09:50:10.233Z,3.45
2018-12-26T09:51:09.643Z,3.24
2018-12-26T09:52:09.613Z,3.36
2018-12-26T09:53:09.584Z,3.41
2018-12-26T09:54:09.564Z,3.45
2018-12-26T09:55:09.530Z,3.27
2018-12-26T09:56:09.549Z,3.37
2018-12-26T09:57:09.473Z,3.37
2018-12-26T09:58:09.445Z,3.45
2018-12-26T09:59:09.417Z,3.46
2018-12-26T10:00:09.390Z,3.49
2018-12-26T10:01:09.362Z,3.48
2018-12-26T10:02:09.335Z,3.48
2018-12-26T10:03:09.306Z,3.46
2018-12-26T10:04:09.279Z,3.45
2018-12-26T10:05:09.250Z,3.45
2018-12-26T10:06:09.226Z,3.50
2018-12-26T10:07:09.196Z,3.36
2018-12-26T10:08:09.168Z,3.52
2018-12-26T10:09:09.144Z,3.53
2018-12-26T10:10:09.113Z,3.45
2018-12-26T10:11:09.086Z,3.31
2018-12-26T10:12:09.057Z,3.45
2018-12-26T10:13:09.030Z,3.37
2018-12-26T10:14:09.005Z,3.40
2018-12-26T10:15:08.975Z,3.46
2018-12-26T10:16:08.946Z,3.45
2018-12-26T10:17:08.927Z,3.40
2018-12-26T10:18:08.897Z,3.36
2018-12-26T10:19:08.874Z,3.41
2018-12-26T10:20:08.838Z,3.40
2018-12-26T10:21:08.810Z,3.45
2018-12-26T10:22:08.877Z,3.50
2018-12-26T10:23:08.751Z,3.55
2018-12-26T10:24:08.724Z,3.49
2018-12-26T10:25:08.699Z,3.55
2018-12-26T10:26:08.670Z,3.59
2018-12-26T10:27:08.655Z,3.59
2018-12-26T10:28:08.632Z,3.55
2018-12-26T10:29:08.591Z,3.59
2018-12-26T10:30:08.560Z,3.61
2018-12-26T10:31:09.496Z,3.53
2018-12-26T10:32:08.508Z,3.61
2018-12-26T10:33:08.476Z,3.48
2018-12-26T10:34:08.452Z,3.58
2018-12-26T10:35:08.420Z,3.59
2018-12-26T10:36:08.393Z,3.64
2018-12-26T10:37:08.365Z,3.59
2018-12-26T10:38:08.339Z,3.58
2018-12-26T10:39:08.315Z,3.53
2018-12-26T10:40:08.284Z,3.64
2018-12-26T10:41:08.282Z,3.68
2018-12-26T10:42:08.230Z,3.73
2018-12-26T10:43:08.202Z,3.70
2018-12-26T10:44:08.175Z,3.64
2018-12-26T10:45:08.147Z,3.66
2018-12-26T10:46:08.119Z,3.67
2018-12-26T10:47:08.090Z,3.63
2018-12-26T10:48:08.064Z,3.68
2018-12-26T10:49:08.038Z,3.68
2018-12-26T10:50:08.011Z,3.67
2018-12-26T10:51:07.982Z,3.70
2018-12-26T10:52:07.955Z,3.74
2018-12-26T10:53:07.941Z,3.67
2018-12-26T10:54:07.900Z,3.64
2018-12-26T10:55:08.224Z,3.67
2018-12-26T10:56:07.862Z,3.70
2018-12-26T10:57:07.847Z,3.74
2018-12-26T10:58:07.795Z,3.63
2018-12-26T10:59:10.404Z,3.73
2018-12-26T11:00:07.766Z,3.66
2018-12-26T11:01:07.707Z,3.66
2018-12-26T11:02:07.699Z,3.68
2018-12-26T11:03:07.666Z,3.63
2018-12-26T11:04:07.625Z,3.67
2018-12-26T11:05:07.607Z,3.68
2018-12-26T11:06:07.573Z,3.68
2018-12-26T11:07:07.548Z,3.64
2018-12-26T11:08:07.516Z,3.70
2018-12-26T11:09:07.492Z,3.68
2018-12-26T11:10:07.461Z,3.73
2018-12-26T11:11:07.435Z,3.78
2018-12-26T11:12:07.406Z,3.74
2018-12-26T11:13:07.382Z,3.73
2018-12-26T11:14:07.351Z,3.71
2018-12-26T11:15:07.435Z,3.71
2018-12-26T11:16:07.303Z,3.76
2018-12-26T11:17:07.271Z,3.73
2018-12-26T11:18:07.244Z,3.77
2018-12-26T11:19:07.219Z,3.76
2018-12-26T11:20:07.236Z,3.70
2018-12-26T11:21:07.165Z,3.70
2018-12-26T11:22:07.180Z,3.74
2018-12-26T11:23:07.129Z,3.78
2018-12-26T11:24:07.078Z,3.74
2018-12-26T11:25:07.069Z,3.71
2018-12-26T11:26:07.025Z,3.71
2018-12-26T11:27:06.995Z,3.76
2018-12-26T11:28:06.983Z,3.74
2018-12-26T11:29:06.940Z,3.74
2018-12-26T11:30:06.915Z,3.76
2018-12-26T11:31:06.885Z,3.76
2018-12-26T11:32:06.864Z,3.76
2018-12-26T11:33:06.833Z,3.82
2018-12-26T11:34:06.815Z,3.78
2018-12-26T11:35:06.784Z,3.81
2018-12-26T11:36:06.749Z,3.73
2018-12-26T11:37:06.723Z,3.76
2018-12-26T11:38:06.697Z,3.81
2018-12-26T11:39:06.668Z,3.74
2018-12-26T11:40:06.747Z,3.81
2018-12-26T11:41:06.614Z,3.73
2018-12-26T11:42:06.587Z,3.74
2018-12-26T11:43:06.559Z,3.78
2018-12-26T11:44:06.534Z,3.76
2018-12-26T11:45:06.503Z,3.77
2018-12-26T11:46:06.479Z,3.73
2018-12-26T11:47:06.448Z,3.77
2018-12-26T11:48:06.421Z,3.71
2018-12-26T11:49:06.396Z,3.78
2018-12-26T11:50:06.367Z,3.74
2018-12-26T11:51:06.340Z,3.82
2018-12-26T11:52:07.241Z,3.89
2018-12-26T11:53:06.286Z,3.78
2018-12-26T11:54:06.257Z,3.84
2018-12-26T11:55:06.236Z,3.94
2018-12-26T11:56:06.203Z,3.86
2018-12-26T11:57:06.175Z,3.89
2018-12-26T11:58:06.148Z,3.89
2018-12-26T11:59:06.124Z,3.86
2018-12-26T12:00:06.094Z,3.89
2018-12-26T12:01:06.066Z,3.89
2018-12-26T12:02:06.040Z,3.91
2018-12-26T12:03:06.010Z,3.88
2018-12-26T12:04:05.985Z,3.88
2018-12-26T12:05:05.956Z,3.95
2018-12-26T12:06:05.931Z,3.86
2018-12-26T12:07:05.900Z,3.92
2018-12-26T12:08:05.875Z,3.95
2018-12-26T12:09:05.849Z,3.86
2018-12-26T12:10:05.841Z,3.84
2018-12-26T12:11:05.794Z,3.89
2018-12-26T12:12:05.770Z,3.86
2018-12-26T12:13:05.740Z,3.91
2018-12-26T12:14:05.713Z,3.91
2018-12-26T12:15:05.687Z,3.89
2018-12-26T12:16:05.658Z,3.91
2018-12-26T12:17:05.631Z,3.84
2018-12-26T12:18:05.604Z,3.88
2018-12-26T12:19:05.575Z,3.86
2018-12-26T12:20:05.551Z,3.84
2018-12-26T12:21:05.521Z,3.76
2018-12-26T12:22:05.493Z,3.81
2018-12-26T12:23:05.504Z,3.85
2018-12-26T12:24:05.442Z,3.89
2018-12-26T12:25:05.411Z,3.88
2018-12-26T12:26:05.385Z,3.92
2018-12-26T12:27:05.357Z,3.91
2018-12-26T12:28:05.340Z,3.94
2018-12-26T12:29:05.331Z,3.89
2018-12-26T12:30:05.287Z,3.89
2018-12-26T12:31:05.245Z,3.94
2018-12-26T12:32:05.225Z,3.91
2018-12-26T12:33:05.196Z,3.86
2018-12-26T12:34:05.165Z,3.89
2018-12-26T12:35:05.137Z,3.89
2018-12-26T12:36:05.110Z,3.74
2018-12-26T12:37:05.082Z,3.91
2018-12-26T12:38:05.055Z,3.88
2018-12-26T12:39:05.026Z,3.89
2018-12-26T12:40:04.999Z,3.88
2018-12-26T12:41:04.990Z,3.99
2018-12-26T12:42:04.981Z,3.96
2018-12-26T12:43:04.917Z,3.91
2018-12-26T12:44:04.890Z,3.96
2018-12-26T12:45:04.866Z,3.96
2018-12-26T12:46:04.836Z,3.89
2018-12-26T12:47:04.809Z,3.91
2018-12-26T12:48:04.781Z,3.99
2018-12-26T12:49:04.755Z,3.99
2018-12-26T12:50:04.726Z,3.95
2018-12-26T12:51:04.705Z,3.92
2018-12-26T12:52:04.670Z,3.94
2018-12-26T12:53:04.643Z,3.91
2018-12-26T12:54:04.618Z,3.89
2018-12-26T12:55:04.588Z,3.92
2018-12-26T12:56:11.799Z,3.88
2018-12-26T12:57:04.534Z,3.91
2018-12-26T12:58:04.506Z,3.95
2018-12-26T12:59:04.478Z,3.88
2018-12-26T13:00:04.475Z,3.91
2018-12-26T13:01:04.427Z,3.91
2018-12-26T13:02:04.400Z,3.88
2018-12-26T13:03:04.367Z,3.96
2018-12-26T13:04:04.341Z,4.00
2018-12-26T13:05:04.317Z,3.95
2018-12-26T13:06:04.293Z,4.02
2018-12-26T13:07:04.338Z,4.09
2018-12-26T13:08:04.231Z,3.96
2018-12-26T13:09:04.205Z,3.88
2018-12-26T13:10:04.178Z,4.03
2018-12-26T13:11:04.148Z,4.04
2018-12-26T13:12:04.125Z,4.00
2018-12-26T13:13:04.095Z,4.06
2018-12-26T13:14:04.068Z,4.03
2018-12-26T13:15:04.040Z,4.07
2018-12-26T13:16:04.011Z,4.07
2018-12-26T13:17:03.985Z,4.04
2018-12-26T13:18:03.959Z,4.06